sensor_id;sensor_type;location;lat;lon;timestamp;temperature;humidity
9975;DHT22;5028;50.974;4.968;2023-12-14T00:01:00;8.20;99.90
9975;DHT22;5028;50.974;4.968;2023-12-14T00:03:28;8.20;99.90
9975;DHT22;5028;50.974;4.968;2023-12-14T00:05:56;8.20;99.90
9975;DHT22;5028;50.974;4.968;2023-12-14T00:08:25;8.20;99.90
9975;DHT22;5028;50.974;4.968;2023-12-14T00:10:53;8.30;99.90
9975;DHT22;5028;50.974;4.968;2023-12-14T00:13:22;8.30;99.90
9975;DHT22;5028;50.974;4.968;2023-12-14T00:15:50;8.30;99.90
9975;DHT22;5028;50.974;4.968;2023-12-14T00:18:19;8.30;99.90
9975;DHT22;5028;50.974;4.968;2023-12-14T00:20:47;8.30;99.90
9975;DHT22;5028;50.974;4.968;2023-12-14T00:23:15;8.30;99.90
9975;DHT22;5028;50.974;4.968;2023-12-14T00:25:44;8.30;99.90
9975;DHT22;5028;50.974;4.968;2023-12-14T00:28:12;8.20;99.90
9975;DHT22;5028;50.974;4.968;2023-12-14T00:30:42;8.20;99.90
9975;DHT22;5028;50.974;4.968;2023-12-14T00:33:10;8.30;99.90
9975;DHT22;5028;50.974;4.968;2023-12-14T00:35:39;8.30;99.90
9975;DHT22;5028;50.974;4.968;2023-12-14T00:38:07;8.30;99.90
9975;DHT22;5028;50.974;4.968;2023-12-14T00:40:35;8.20;99.90
9975;DHT22;5028;50.974;4.968;2023-12-14T00:43:03;8.30;99.90
9975;DHT22;5028;50.974;4.968;2023-12-14T00:45:32;8.30;99.90
9975;DHT22;5028;50.974;4.968;2023-12-14T00:48:02;8.30;99.90
9975;DHT22;5028;50.974;4.968;2023-12-14T00:50:30;8.30;99.90
9975;DHT22;5028;50.974;4.968;2023-12-14T00:52:58;8.30;99.90
9975;DHT22;5028;50.974;4.968;2023-12-14T00:55:26;8.30;99.90
9975;DHT22;5028;50.974;4.968;2023-12-14T00:57:55;8.30;99.90
9975;DHT22;5028;50.974;4.968;2023-12-14T01:00:23;8.30;99.90
9975;DHT22;5028;50.974;4.968;2023-12-14T01:02:51;8.30;99.90
9975;DHT22;5028;50.974;4.968;2023-12-14T01:05:21;8.30;99.90
9975;DHT22;5028;50.974;4.968;2023-12-14T01:07:49;8.30;99.90
9975;DHT22;5028;50.974;4.968;2023-12-14T01:10:18;8.30;99.90
9975;DHT22;5028;50.974;4.968;2023-12-14T01:12:46;8.30;99.90
9975;DHT22;5028;50.974;4.968;2023-12-14T01:15:14;8.30;99.90
9975;DHT22;5028;50.974;4.968;2023-12-14T01:17:42;8.30;99.90
9975;DHT22;5028;50.974;4.968;2023-12-14T01:20:11;8.30;99.90
9975;DHT22;5028;50.974;4.968;2023-12-14T01:22:41;8.30;99.90
9975;DHT22;5028;50.974;4.968;2023-12-14T01:25:09;8.30;99.90
9975;DHT22;5028;50.974;4.968;2023-12-14T01:27:37;8.30;99.90
9975;DHT22;5028;50.974;4.968;2023-12-14T01:30:07;8.30;99.90
9975;DHT22;5028;50.974;4.968;2023-12-14T01:32:35;8.30;99.90
9975;DHT22;5028;50.974;4.968;2023-12-14T01:35:05;8.20;99.90
9975;DHT22;5028;50.974;4.968;2023-12-14T01:37:33;8.20;99.90
9975;DHT22;5028;50.974;4.968;2023-12-14T01:40:04;8.10;99.90
9975;DHT22;5028;50.974;4.968;2023-12-14T01:42:33;8.00;99.90
9975;DHT22;5028;50.974;4.968;2023-12-14T01:45:01;8.00;99.90
9975;DHT22;5028;50.974;4.968;2023-12-14T01:47:30;7.90;99.90
9975;DHT22;5028;50.974;4.968;2023-12-14T01:49:59;7.80;99.90
9975;DHT22;5028;50.974;4.968;2023-12-14T01:52:27;7.70;99.90
9975;DHT22;5028;50.974;4.968;2023-12-14T01:54:55;7.70;99.90
9975;DHT22;5028;50.974;4.968;2023-12-14T01:57:27;7.60;99.90
9975;DHT22;5028;50.974;4.968;2023-12-14T01:59:55;7.50;99.90
9975;DHT22;5028;50.974;4.968;2023-12-14T02:02:23;7.50;99.90
9975;DHT22;5028;50.974;4.968;2023-12-14T02:04:52;7.40;99.90
9975;DHT22;5028;50.974;4.968;2023-12-14T02:07:20;7.30;99.90
9975;DHT22;5028;50.974;4.968;2023-12-14T02:09:48;7.20;99.90
9975;DHT22;5028;50.974;4.968;2023-12-14T02:12:17;7.20;99.90
9975;DHT22;5028;50.974;4.968;2023-12-14T02:14:48;7.20;99.90
9975;DHT22;5028;50.974;4.968;2023-12-14T02:17:16;7.20;99.90
9975;DHT22;5028;50.974;4.968;2023-12-14T02:19:45;7.20;99.90
9975;DHT22;5028;50.974;4.968;2023-12-14T02:22:13;7.20;99.90
9975;DHT22;5028;50.974;4.968;2023-12-14T02:24:45;7.10;99.90
9975;DHT22;5028;50.974;4.968;2023-12-14T02:27:13;7.10;99.90
9975;DHT22;5028;50.974;4.968;2023-12-14T02:29:41;7.10;99.90
9975;DHT22;5028;50.974;4.968;2023-12-14T02:32:10;7.00;99.90
9975;DHT22;5028;50.974;4.968;2023-12-14T02:34:38;7.00;99.90
9975;DHT22;5028;50.974;4.968;2023-12-14T02:37:06;7.00;99.90
9975;DHT22;5028;50.974;4.968;2023-12-14T02:39:35;6.90;99.90
9975;DHT22;5028;50.974;4.968;2023-12-14T02:42:04;6.90;99.90
9975;DHT22;5028;50.974;4.968;2023-12-14T02:44:32;6.90;99.90
9975;DHT22;5028;50.974;4.968;2023-12-14T02:47:01;6.90;99.90
9975;DHT22;5028;50.974;4.968;2023-12-14T02:49:29;6.90;99.90
9975;DHT22;5028;50.974;4.968;2023-12-14T02:51:57;6.80;99.90
9975;DHT22;5028;50.974;4.968;2023-12-14T02:54:25;6.80;99.90
9975;DHT22;5028;50.974;4.968;2023-12-14T02:56:53;6.80;99.90
9975;DHT22;5028;50.974;4.968;2023-12-14T02:59:23;6.80;99.90
9975;DHT22;5028;50.974;4.968;2023-12-14T03:01:51;6.80;99.90
9975;DHT22;5028;50.974;4.968;2023-12-14T03:04:20;6.80;99.90
9975;DHT22;5028;50.974;4.968;2023-12-14T03:06:48;6.80;99.90
9975;DHT22;5028;50.974;4.968;2023-12-14T03:09:16;6.70;99.90
9975;DHT22;5028;50.974;4.968;2023-12-14T03:11:46;6.70;99.90
9975;DHT22;5028;50.974;4.968;2023-12-14T03:14:14;6.70;99.90
9975;DHT22;5028;50.974;4.968;2023-12-14T03:16:43;6.70;99.90
9975;DHT22;5028;50.974;4.968;2023-12-14T03:19:12;6.70;99.90
9975;DHT22;5028;50.974;4.968;2023-12-14T03:21:40;6.70;99.90
9975;DHT22;5028;50.974;4.968;2023-12-14T03:24:08;6.70;99.90
9975;DHT22;5028;50.974;4.968;2023-12-14T03:26:37;6.70;99.90
9975;DHT22;5028;50.974;4.968;2023-12-14T03:29:05;6.60;99.90
9975;DHT22;5028;50.974;4.968;2023-12-14T03:31:35;6.60;99.90
9975;DHT22;5028;50.974;4.968;2023-12-14T03:34:04;6.60;99.90
9975;DHT22;5028;50.974;4.968;2023-12-14T03:36:35;6.50;99.90
9975;DHT22;5028;50.974;4.968;2023-12-14T03:39:03;6.50;99.90
9975;DHT22;5028;50.974;4.968;2023-12-14T03:41:32;6.50;99.90
9975;DHT22;5028;50.974;4.968;2023-12-14T03:44:00;6.40;99.90
9975;DHT22;5028;50.974;4.968;2023-12-14T03:46:29;6.40;99.90
9975;DHT22;5028;50.974;4.968;2023-12-14T03:48:57;6.40;99.90
9975;DHT22;5028;50.974;4.968;2023-12-14T03:51:27;6.30;99.90
9975;DHT22;5028;50.974;4.968;2023-12-14T03:53:55;6.30;99.90
9975;DHT22;5028;50.974;4.968;2023-12-14T03:56:23;6.30;99.90
9975;DHT22;5028;50.974;4.968;2023-12-14T03:58:52;6.30;99.90
9975;DHT22;5028;50.974;4.968;2023-12-14T04:01:21;6.20;99.90
9975;DHT22;5028;50.974;4.968;2023-12-14T04:03:49;6.20;99.90
9975;DHT22;5028;50.974;4.968;2023-12-14T04:06:17;6.20;99.90
9975;DHT22;5028;50.974;4.968;2023-12-14T04:08:47;6.10;99.90
9975;DHT22;5028;50.974;4.968;2023-12-14T04:11:15;6.10;99.90
9975;DHT22;5028;50.974;4.968;2023-12-14T04:13:43;6.00;99.90
9975;DHT22;5028;50.974;4.968;2023-12-14T04:16:12;5.90;99.90
9975;DHT22;5028;50.974;4.968;2023-12-14T04:18:40;5.90;99.90
9975;DHT22;5028;50.974;4.968;2023-12-14T04:21:08;5.90;99.90
9975;DHT22;5028;50.974;4.968;2023-12-14T04:23:36;5.90;99.90
9975;DHT22;5028;50.974;4.968;2023-12-14T04:26:06;5.80;99.90
9975;DHT22;5028;50.974;4.968;2023-12-14T04:28:36;5.80;99.90
9975;DHT22;5028;50.974;4.968;2023-12-14T04:31:04;5.80;99.90
9975;DHT22;5028;50.974;4.968;2023-12-14T04:33:33;5.80;99.90
9975;DHT22;5028;50.974;4.968;2023-12-14T04:36:01;5.80;99.90
9975;DHT22;5028;50.974;4.968;2023-12-14T04:38:29;5.70;99.90
9975;DHT22;5028;50.974;4.968;2023-12-14T04:40:57;5.70;99.90
9975;DHT22;5028;50.974;4.968;2023-12-14T04:43:27;5.70;99.90
9975;DHT22;5028;50.974;4.968;2023-12-14T04:45:57;5.80;99.90
9975;DHT22;5028;50.974;4.968;2023-12-14T04:48:25;5.70;99.90
9975;DHT22;5028;50.974;4.968;2023-12-14T04:50:54;5.70;99.90
9975;DHT22;5028;50.974;4.968;2023-12-14T04:53:22;5.80;99.90
9975;DHT22;5028;50.974;4.968;2023-12-14T04:55:50;5.80;99.90
9975;DHT22;5028;50.974;4.968;2023-12-14T04:58:19;5.70;99.90
9975;DHT22;5028;50.974;4.968;2023-12-14T05:00:49;5.70;99.90
9975;DHT22;5028;50.974;4.968;2023-12-14T05:03:17;5.70;99.90
9975;DHT22;5028;50.974;4.968;2023-12-14T05:05:47;5.80;99.90
9975;DHT22;5028;50.974;4.968;2023-12-14T05:08:16;5.70;99.90
9975;DHT22;5028;50.974;4.968;2023-12-14T05:10:44;5.70;99.90
9975;DHT22;5028;50.974;4.968;2023-12-14T05:13:12;5.70;99.90
9975;DHT22;5028;50.974;4.968;2023-12-14T05:15:41;5.70;99.90
9975;DHT22;5028;50.974;4.968;2023-12-14T05:18:10;5.70;99.90
9975;DHT22;5028;50.974;4.968;2023-12-14T05:20:41;5.70;99.90
9975;DHT22;5028;50.974;4.968;2023-12-14T05:23:09;5.70;99.90
9975;DHT22;5028;50.974;4.968;2023-12-14T05:25:38;5.70;99.90
9975;DHT22;5028;50.974;4.968;2023-12-14T05:28:06;5.70;99.90
9975;DHT22;5028;50.974;4.968;2023-12-14T05:30:34;5.70;99.90
9975;DHT22;5028;50.974;4.968;2023-12-14T05:33:03;5.70;99.90
9975;DHT22;5028;50.974;4.968;2023-12-14T05:35:32;5.70;99.90
9975;DHT22;5028;50.974;4.968;2023-12-14T05:38:00;5.70;99.90
9975;DHT22;5028;50.974;4.968;2023-12-14T05:40:29;5.70;99.90
9975;DHT22;5028;50.974;4.968;2023-12-14T05:42:58;5.70;99.90
9975;DHT22;5028;50.974;4.968;2023-12-14T05:45:26;5.70;99.90
9975;DHT22;5028;50.974;4.968;2023-12-14T05:47:55;5.70;99.90
9975;DHT22;5028;50.974;4.968;2023-12-14T05:50:23;5.70;99.90
9975;DHT22;5028;50.974;4.968;2023-12-14T05:52:54;5.70;99.90
9975;DHT22;5028;50.974;4.968;2023-12-14T05:55:22;5.70;99.90
9975;DHT22;5028;50.974;4.968;2023-12-14T05:57:50;5.70;99.90
9975;DHT22;5028;50.974;4.968;2023-12-14T06:00:19;5.70;99.90
9975;DHT22;5028;50.974;4.968;2023-12-14T06:02:47;5.70;99.90
9975;DHT22;5028;50.974;4.968;2023-12-14T06:05:15;5.70;99.90
9975;DHT22;5028;50.974;4.968;2023-12-14T06:07:44;5.70;99.90
9975;DHT22;5028;50.974;4.968;2023-12-14T06:10:14;5.60;99.90
9975;DHT22;5028;50.974;4.968;2023-12-14T06:12:42;5.60;99.90
9975;DHT22;5028;50.974;4.968;2023-12-14T06:15:10;5.60;99.90
9975;DHT22;5028;50.974;4.968;2023-12-14T06:17:39;5.60;99.90
9975;DHT22;5028;50.974;4.968;2023-12-14T06:20:10;5.60;99.90
9975;DHT22;5028;50.974;4.968;2023-12-14T06:22:39;5.60;99.90
9975;DHT22;5028;50.974;4.968;2023-12-14T06:25:08;5.60;99.90
9975;DHT22;5028;50.974;4.968;2023-12-14T06:27:37;5.60;99.90
9975;DHT22;5028;50.974;4.968;2023-12-14T06:30:07;5.60;99.90
9975;DHT22;5028;50.974;4.968;2023-12-14T06:32:36;5.60;99.90
9975;DHT22;5028;50.974;4.968;2023-12-14T06:35:06;5.60;99.90
9975;DHT22;5028;50.974;4.968;2023-12-14T06:37:34;5.60;99.90
9975;DHT22;5028;50.974;4.968;2023-12-14T06:40:03;5.60;99.90
9975;DHT22;5028;50.974;4.968;2023-12-14T06:42:32;5.60;99.90
9975;DHT22;5028;50.974;4.968;2023-12-14T06:45:03;5.60;99.90
9975;DHT22;5028;50.974;4.968;2023-12-14T06:47:32;5.60;99.90
9975;DHT22;5028;50.974;4.968;2023-12-14T06:50:00;5.60;99.90
9975;DHT22;5028;50.974;4.968;2023-12-14T06:52:29;5.70;99.90
9975;DHT22;5028;50.974;4.968;2023-12-14T06:54:57;5.60;99.90
9975;DHT22;5028;50.974;4.968;2023-12-14T06:57:25;5.60;99.90
9975;DHT22;5028;50.974;4.968;2023-12-14T06:59:53;5.60;99.90
9975;DHT22;5028;50.974;4.968;2023-12-14T07:02:23;5.60;99.90
9975;DHT22;5028;50.974;4.968;2023-12-14T07:04:51;5.60;99.90
9975;DHT22;5028;50.974;4.968;2023-12-14T07:07:19;5.60;99.90
9975;DHT22;5028;50.974;4.968;2023-12-14T07:09:48;5.60;99.90
9975;DHT22;5028;50.974;4.968;2023-12-14T07:12:16;5.60;99.90
9975;DHT22;5028;50.974;4.968;2023-12-14T07:14:44;5.60;99.90
9975;DHT22;5028;50.974;4.968;2023-12-14T07:17:13;5.60;99.90
9975;DHT22;5028;50.974;4.968;2023-12-14T07:19:42;5.60;99.90
9975;DHT22;5028;50.974;4.968;2023-12-14T07:22:11;5.60;99.90
9975;DHT22;5028;50.974;4.968;2023-12-14T07:24:39;5.60;99.90
9975;DHT22;5028;50.974;4.968;2023-12-14T07:27:18;5.60;99.90
9975;DHT22;5028;50.974;4.968;2023-12-14T07:29:47;5.60;99.90
9975;DHT22;5028;50.974;4.968;2023-12-14T07:32:15;5.60;99.90
9975;DHT22;5028;50.974;4.968;2023-12-14T07:34:45;5.60;99.90
9975;DHT22;5028;50.974;4.968;2023-12-14T07:37:13;5.60;99.90
9975;DHT22;5028;50.974;4.968;2023-12-14T07:39:41;5.60;99.90
9975;DHT22;5028;50.974;4.968;2023-12-14T07:42:10;5.60;99.90
9975;DHT22;5028;50.974;4.968;2023-12-14T07:44:39;5.60;99.90
9975;DHT22;5028;50.974;4.968;2023-12-14T07:47:08;5.60;99.90
9975;DHT22;5028;50.974;4.968;2023-12-14T07:49:36;5.60;99.90
9975;DHT22;5028;50.974;4.968;2023-12-14T07:52:06;5.60;99.90
9975;DHT22;5028;50.974;4.968;2023-12-14T07:54:35;5.60;99.90
9975;DHT22;5028;50.974;4.968;2023-12-14T07:57:03;5.60;99.90
9975;DHT22;5028;50.974;4.968;2023-12-14T07:59:32;5.70;99.90
9975;DHT22;5028;50.974;4.968;2023-12-14T08:02:00;5.70;99.90
9975;DHT22;5028;50.974;4.968;2023-12-14T08:04:28;5.60;99.90
9975;DHT22;5028;50.974;4.968;2023-12-14T08:06:57;5.70;99.90
9975;DHT22;5028;50.974;4.968;2023-12-14T08:09:27;5.70;99.90
9975;DHT22;5028;50.974;4.968;2023-12-14T08:11:55;5.70;99.90
9975;DHT22;5028;50.974;4.968;2023-12-14T08:14:23;5.70;99.90
9975;DHT22;5028;50.974;4.968;2023-12-14T08:16:51;5.70;99.90
9975;DHT22;5028;50.974;4.968;2023-12-14T08:19:20;5.70;99.90
9975;DHT22;5028;50.974;4.968;2023-12-14T08:21:48;5.70;99.90
9975;DHT22;5028;50.974;4.968;2023-12-14T08:24:16;5.70;99.90
9975;DHT22;5028;50.974;4.968;2023-12-14T08:26:46;5.70;99.90
9975;DHT22;5028;50.974;4.968;2023-12-14T08:29:14;5.70;99.90
9975;DHT22;5028;50.974;4.968;2023-12-14T08:31:42;5.70;99.90
9975;DHT22;5028;50.974;4.968;2023-12-14T08:34:10;5.70;99.90
9975;DHT22;5028;50.974;4.968;2023-12-14T08:36:39;5.70;99.90
9975;DHT22;5028;50.974;4.968;2023-12-14T08:39:07;5.80;99.90
9975;DHT22;5028;50.974;4.968;2023-12-14T08:41:35;5.80;99.90
9975;DHT22;5028;50.974;4.968;2023-12-14T08:44:05;5.80;99.90
9975;DHT22;5028;50.974;4.968;2023-12-14T08:46:38;5.80;99.90
9975;DHT22;5028;50.974;4.968;2023-12-14T08:49:07;5.80;99.90
9975;DHT22;5028;50.974;4.968;2023-12-14T08:51:35;5.90;99.90
9975;DHT22;5028;50.974;4.968;2023-12-14T08:54:05;5.80;99.90
9975;DHT22;5028;50.974;4.968;2023-12-14T08:56:33;5.80;99.90
9975;DHT22;5028;50.974;4.968;2023-12-14T08:59:01;5.70;99.90
9975;DHT22;5028;50.974;4.968;2023-12-14T09:01:32;5.70;99.90
9975;DHT22;5028;50.974;4.968;2023-12-14T09:04:00;5.70;99.90
9975;DHT22;5028;50.974;4.968;2023-12-14T09:06:29;5.70;99.90
9975;DHT22;5028;50.974;4.968;2023-12-14T09:08:58;5.60;99.90
9975;DHT22;5028;50.974;4.968;2023-12-14T09:11:26;5.70;99.90
9975;DHT22;5028;50.974;4.968;2023-12-14T09:13:54;5.70;99.90
9975;DHT22;5028;50.974;4.968;2023-12-14T09:16:22;5.70;99.90
9975;DHT22;5028;50.974;4.968;2023-12-14T09:18:52;5.70;99.90
9975;DHT22;5028;50.974;4.968;2023-12-14T09:21:20;5.70;99.90
9975;DHT22;5028;50.974;4.968;2023-12-14T09:23:59;5.70;99.90
9975;DHT22;5028;50.974;4.968;2023-12-14T09:26:28;5.70;99.90
9975;DHT22;5028;50.974;4.968;2023-12-14T09:28:56;5.70;99.90
9975;DHT22;5028;50.974;4.968;2023-12-14T09:31:25;5.70;99.90
9975;DHT22;5028;50.974;4.968;2023-12-14T09:33:54;5.80;99.90
9975;DHT22;5028;50.974;4.968;2023-12-14T09:36:23;5.80;99.90
9975;DHT22;5028;50.974;4.968;2023-12-14T09:38:51;5.80;99.90
9975;DHT22;5028;50.974;4.968;2023-12-14T09:41:19;5.80;99.90
9975;DHT22;5028;50.974;4.968;2023-12-14T09:43:47;5.80;99.90
9975;DHT22;5028;50.974;4.968;2023-12-14T09:46:17;5.80;99.90
9975;DHT22;5028;50.974;4.968;2023-12-14T09:48:46;5.90;99.90
9975;DHT22;5028;50.974;4.968;2023-12-14T09:51:16;6.00;99.90
9975;DHT22;5028;50.974;4.968;2023-12-14T09:53:44;6.00;99.90
9975;DHT22;5028;50.974;4.968;2023-12-14T09:56:13;6.00;99.90
9975;DHT22;5028;50.974;4.968;2023-12-14T09:58:41;6.00;99.90
9975;DHT22;5028;50.974;4.968;2023-12-14T10:01:22;6.00;99.90
9975;DHT22;5028;50.974;4.968;2023-12-14T10:04:09;6.00;99.90
9975;DHT22;5028;50.974;4.968;2023-12-14T10:06:40;5.90;99.90
9975;DHT22;5028;50.974;4.968;2023-12-14T10:09:09;5.90;99.90
9975;DHT22;5028;50.974;4.968;2023-12-14T10:11:40;6.00;99.90
9975;DHT22;5028;50.974;4.968;2023-12-14T10:14:19;6.00;99.90
9975;DHT22;5028;50.974;4.968;2023-12-14T10:16:48;6.00;99.90
9975;DHT22;5028;50.974;4.968;2023-12-14T10:19:18;5.90;99.90
9975;DHT22;5028;50.974;4.968;2023-12-14T10:21:49;5.90;99.90
9975;DHT22;5028;50.974;4.968;2023-12-14T10:24:18;6.00;99.90
9975;DHT22;5028;50.974;4.968;2023-12-14T10:26:47;6.10;99.90
9975;DHT22;5028;50.974;4.968;2023-12-14T10:29:15;6.10;99.90
9975;DHT22;5028;50.974;4.968;2023-12-14T10:31:43;6.10;99.90
9975;DHT22;5028;50.974;4.968;2023-12-14T10:34:12;6.10;99.90
9975;DHT22;5028;50.974;4.968;2023-12-14T10:36:40;6.20;99.90
9975;DHT22;5028;50.974;4.968;2023-12-14T10:39:14;6.10;99.90
9975;DHT22;5028;50.974;4.968;2023-12-14T10:41:44;6.30;99.90
9975;DHT22;5028;50.974;4.968;2023-12-14T10:44:26;6.30;99.90
9975;DHT22;5028;50.974;4.968;2023-12-14T10:47:15;6.30;99.90
9975;DHT22;5028;50.974;4.968;2023-12-14T10:49:45;6.30;99.90
9975;DHT22;5028;50.974;4.968;2023-12-14T10:52:16;6.30;99.90
9975;DHT22;5028;50.974;4.968;2023-12-14T10:54:49;6.40;99.90
9975;DHT22;5028;50.974;4.968;2023-12-14T10:57:19;6.40;99.90
9975;DHT22;5028;50.974;4.968;2023-12-14T10:59:49;6.40;99.90
9975;DHT22;5028;50.974;4.968;2023-12-14T11:02:18;6.30;99.90
9975;DHT22;5028;50.974;4.968;2023-12-14T11:04:56;6.30;99.90
9975;DHT22;5028;50.974;4.968;2023-12-14T11:07:46;6.20;99.90
9975;DHT22;5028;50.974;4.968;2023-12-14T11:10:20;6.10;99.90
9975;DHT22;5028;50.974;4.968;2023-12-14T11:13:02;6.10;99.90
9975;DHT22;5028;50.974;4.968;2023-12-14T11:15:33;6.20;99.90
9975;DHT22;5028;50.974;4.968;2023-12-14T11:18:21;6.10;99.90
9975;DHT22;5028;50.974;4.968;2023-12-14T11:20:51;6.10;99.90
9975;DHT22;5028;50.974;4.968;2023-12-14T11:23:32;6.10;99.90
9975;DHT22;5028;50.974;4.968;2023-12-14T11:26:03;6.10;99.90
9975;DHT22;5028;50.974;4.968;2023-12-14T11:28:34;6.00;99.90
9975;DHT22;5028;50.974;4.968;2023-12-14T11:31:03;6.00;99.90
9975;DHT22;5028;50.974;4.968;2023-12-14T11:33:34;6.10;99.90
9975;DHT22;5028;50.974;4.968;2023-12-14T11:36:11;6.10;99.90
9975;DHT22;5028;50.974;4.968;2023-12-14T11:38:40;6.00;99.90
9975;DHT22;5028;50.974;4.968;2023-12-14T11:41:10;6.10;99.90
9975;DHT22;5028;50.974;4.968;2023-12-14T11:43:39;6.10;99.90
9975;DHT22;5028;50.974;4.968;2023-12-14T11:46:09;6.30;99.90
9975;DHT22;5028;50.974;4.968;2023-12-14T11:48:37;6.30;99.90
9975;DHT22;5028;50.974;4.968;2023-12-14T11:51:06;6.30;99.90
9975;DHT22;5028;50.974;4.968;2023-12-14T11:53:35;6.30;99.90
9975;DHT22;5028;50.974;4.968;2023-12-14T11:56:06;6.40;99.90
9975;DHT22;5028;50.974;4.968;2023-12-14T11:58:36;6.40;99.90
9975;DHT22;5028;50.974;4.968;2023-12-14T12:01:14;6.40;99.90
9975;DHT22;5028;50.974;4.968;2023-12-14T12:03:44;6.50;99.90
9975;DHT22;5028;50.974;4.968;2023-12-14T12:06:21;6.60;99.90
9975;DHT22;5028;50.974;4.968;2023-12-14T12:08:51;6.60;99.90
9975;DHT22;5028;50.974;4.968;2023-12-14T12:11:20;6.70;99.90
9975;DHT22;5028;50.974;4.968;2023-12-14T12:13:55;6.80;99.90
9975;DHT22;5028;50.974;4.968;2023-12-14T12:16:24;6.90;99.90
9975;DHT22;5028;50.974;4.968;2023-12-14T12:18:52;6.80;99.90
9975;DHT22;5028;50.974;4.968;2023-12-14T12:21:21;6.80;99.90
9975;DHT22;5028;50.974;4.968;2023-12-14T12:23:49;6.90;99.90
9975;DHT22;5028;50.974;4.968;2023-12-14T12:26:17;6.90;99.90
9975;DHT22;5028;50.974;4.968;2023-12-14T12:28:46;7.00;99.90
9975;DHT22;5028;50.974;4.968;2023-12-14T12:31:17;6.90;99.90
9975;DHT22;5028;50.974;4.968;2023-12-14T12:33:45;7.00;99.90
9975;DHT22;5028;50.974;4.968;2023-12-14T12:36:14;6.90;99.90
9975;DHT22;5028;50.974;4.968;2023-12-14T12:38:42;6.90;99.90
9975;DHT22;5028;50.974;4.968;2023-12-14T12:41:10;7.00;99.90
9975;DHT22;5028;50.974;4.968;2023-12-14T12:43:39;7.10;99.90
9975;DHT22;5028;50.974;4.968;2023-12-14T12:46:07;7.10;99.90
9975;DHT22;5028;50.974;4.968;2023-12-14T12:48:37;7.20;99.90
9975;DHT22;5028;50.974;4.968;2023-12-14T12:51:06;7.10;99.90
9975;DHT22;5028;50.974;4.968;2023-12-14T12:53:35;7.10;99.90
9975;DHT22;5028;50.974;4.968;2023-12-14T12:56:03;7.10;99.90
9975;DHT22;5028;50.974;4.968;2023-12-14T12:58:32;7.00;99.90
9975;DHT22;5028;50.974;4.968;2023-12-14T13:01:00;7.00;99.90
9975;DHT22;5028;50.974;4.968;2023-12-14T13:03:28;7.10;99.90
9975;DHT22;5028;50.974;4.968;2023-12-14T13:05:58;7.20;99.90
9975;DHT22;5028;50.974;4.968;2023-12-14T13:08:26;7.20;99.90
9975;DHT22;5028;50.974;4.968;2023-12-14T13:10:55;7.30;99.90
9975;DHT22;5028;50.974;4.968;2023-12-14T13:13:23;7.40;99.90
9975;DHT22;5028;50.974;4.968;2023-12-14T13:15:51;7.40;99.90
9975;DHT22;5028;50.974;4.968;2023-12-14T13:18:19;7.40;99.90
9975;DHT22;5028;50.974;4.968;2023-12-14T13:20:48;7.50;99.90
9975;DHT22;5028;50.974;4.968;2023-12-14T13:23:17;7.40;99.90
9975;DHT22;5028;50.974;4.968;2023-12-14T13:25:45;7.50;99.90
9975;DHT22;5028;50.974;4.968;2023-12-14T13:28:14;7.50;99.90
9975;DHT22;5028;50.974;4.968;2023-12-14T13:30:44;7.50;99.90
9975;DHT22;5028;50.974;4.968;2023-12-14T13:33:12;7.50;99.90
9975;DHT22;5028;50.974;4.968;2023-12-14T13:35:41;7.50;99.90
9975;DHT22;5028;50.974;4.968;2023-12-14T13:38:10;7.50;99.90
9975;DHT22;5028;50.974;4.968;2023-12-14T13:40:39;7.50;99.90
9975;DHT22;5028;50.974;4.968;2023-12-14T13:43:08;7.60;99.90
9975;DHT22;5028;50.974;4.968;2023-12-14T13:45:38;7.60;99.90
9975;DHT22;5028;50.974;4.968;2023-12-14T13:48:09;7.70;99.90
9975;DHT22;5028;50.974;4.968;2023-12-14T13:50:38;7.60;99.90
9975;DHT22;5028;50.974;4.968;2023-12-14T13:53:07;7.60;99.90
9975;DHT22;5028;50.974;4.968;2023-12-14T13:55:35;7.50;99.90
9975;DHT22;5028;50.974;4.968;2023-12-14T13:58:05;7.50;99.90
9975;DHT22;5028;50.974;4.968;2023-12-14T14:00:34;7.40;99.90
9975;DHT22;5028;50.974;4.968;2023-12-14T14:03:04;7.40;99.90
9975;DHT22;5028;50.974;4.968;2023-12-14T14:05:32;7.30;99.90
9975;DHT22;5028;50.974;4.968;2023-12-14T14:08:01;7.30;99.90
9975;DHT22;5028;50.974;4.968;2023-12-14T14:10:31;7.20;99.90
9975;DHT22;5028;50.974;4.968;2023-12-14T14:12:59;7.30;99.90
9975;DHT22;5028;50.974;4.968;2023-12-14T14:15:29;7.30;99.90
9975;DHT22;5028;50.974;4.968;2023-12-14T14:17:57;7.30;99.90
9975;DHT22;5028;50.974;4.968;2023-12-14T14:20:25;7.30;99.90
9975;DHT22;5028;50.974;4.968;2023-12-14T14:22:54;7.30;99.90
9975;DHT22;5028;50.974;4.968;2023-12-14T14:25:23;7.30;99.90
9975;DHT22;5028;50.974;4.968;2023-12-14T14:27:51;7.20;99.90
9975;DHT22;5028;50.974;4.968;2023-12-14T14:30:23;7.30;99.90
9975;DHT22;5028;50.974;4.968;2023-12-14T14:32:53;7.20;99.90
9975;DHT22;5028;50.974;4.968;2023-12-14T14:35:22;7.30;99.90
9975;DHT22;5028;50.974;4.968;2023-12-14T14:37:50;7.30;99.90
9975;DHT22;5028;50.974;4.968;2023-12-14T14:40:19;7.30;99.90
9975;DHT22;5028;50.974;4.968;2023-12-14T14:42:47;7.20;99.90
9975;DHT22;5028;50.974;4.968;2023-12-14T14:45:16;7.30;99.90
9975;DHT22;5028;50.974;4.968;2023-12-14T14:47:44;7.20;99.90
9975;DHT22;5028;50.974;4.968;2023-12-14T14:50:14;7.20;99.90
9975;DHT22;5028;50.974;4.968;2023-12-14T14:52:42;7.20;99.90
9975;DHT22;5028;50.974;4.968;2023-12-14T14:55:10;7.20;99.90
9975;DHT22;5028;50.974;4.968;2023-12-14T14:57:39;7.20;99.90
9975;DHT22;5028;50.974;4.968;2023-12-14T15:00:08;7.10;99.90
9975;DHT22;5028;50.974;4.968;2023-12-14T15:02:36;7.10;99.90
9975;DHT22;5028;50.974;4.968;2023-12-14T15:05:05;7.10;99.90
9975;DHT22;5028;50.974;4.968;2023-12-14T15:07:35;7.10;99.90
9975;DHT22;5028;50.974;4.968;2023-12-14T15:10:03;7.10;99.90
9975;DHT22;5028;50.974;4.968;2023-12-14T15:12:32;7.10;99.90
9975;DHT22;5028;50.974;4.968;2023-12-14T15:15:00;7.00;99.90
9975;DHT22;5028;50.974;4.968;2023-12-14T15:17:30;7.00;99.90
9975;DHT22;5028;50.974;4.968;2023-12-14T15:19:58;7.00;99.90
9975;DHT22;5028;50.974;4.968;2023-12-14T15:22:29;7.00;99.90
9975;DHT22;5028;50.974;4.968;2023-12-14T15:24:59;7.00;99.90
9975;DHT22;5028;50.974;4.968;2023-12-14T15:27:27;7.00;99.90
9975;DHT22;5028;50.974;4.968;2023-12-14T15:29:57;7.00;99.90
9975;DHT22;5028;50.974;4.968;2023-12-14T15:32:26;6.90;99.90
9975;DHT22;5028;50.974;4.968;2023-12-14T15:34:54;6.90;99.90
9975;DHT22;5028;50.974;4.968;2023-12-14T15:37:22;6.90;99.90
9975;DHT22;5028;50.974;4.968;2023-12-14T15:39:50;6.90;99.90
9975;DHT22;5028;50.974;4.968;2023-12-14T15:42:22;6.90;99.90
9975;DHT22;5028;50.974;4.968;2023-12-14T15:44:50;7.00;99.90
9975;DHT22;5028;50.974;4.968;2023-12-14T15:47:18;6.90;99.90
9975;DHT22;5028;50.974;4.968;2023-12-14T15:49:48;7.00;99.90
9975;DHT22;5028;50.974;4.968;2023-12-14T15:52:16;6.90;99.90
9975;DHT22;5028;50.974;4.968;2023-12-14T15:54:44;6.90;99.90
9975;DHT22;5028;50.974;4.968;2023-12-14T15:57:12;6.90;99.90
9975;DHT22;5028;50.974;4.968;2023-12-14T15:59:42;6.90;99.90
9975;DHT22;5028;50.974;4.968;2023-12-14T16:02:11;7.00;99.90
9975;DHT22;5028;50.974;4.968;2023-12-14T16:04:39;6.90;99.90
9975;DHT22;5028;50.974;4.968;2023-12-14T16:07:07;6.90;99.90
9975;DHT22;5028;50.974;4.968;2023-12-14T16:09:36;6.90;99.90
9975;DHT22;5028;50.974;4.968;2023-12-14T16:12:05;6.90;99.90
9975;DHT22;5028;50.974;4.968;2023-12-14T16:14:33;6.90;99.90
9975;DHT22;5028;50.974;4.968;2023-12-14T16:17:03;6.80;99.90
9975;DHT22;5028;50.974;4.968;2023-12-14T16:19:31;6.80;99.90
9975;DHT22;5028;50.974;4.968;2023-12-14T16:21:59;6.80;99.90
9975;DHT22;5028;50.974;4.968;2023-12-14T16:24:28;6.70;99.90
9975;DHT22;5028;50.974;4.968;2023-12-14T16:26:56;6.70;99.90
9975;DHT22;5028;50.974;4.968;2023-12-14T16:29:25;6.70;99.90